createdAt,value
2022-10-25T00:01:21.322Z,19.73
2022-10-25T00:03:48.534Z,19.42
2022-10-25T00:06:16.082Z,18.80
2022-10-25T00:08:43.443Z,18.88
2022-10-25T00:11:23.067Z,19.45
2022-10-25T00:13:52.445Z,20.10
2022-10-25T00:16:23.079Z,22.10
2022-10-25T00:18:50.627Z,21.55
2022-10-25T00:21:18.206Z,20.63
2022-10-25T00:23:45.413Z,22.30
2022-10-25T00:26:12.871Z,21.90
2022-10-25T00:28:40.219Z,21.58
2022-10-25T00:31:10.478Z,22.38
2022-10-25T00:33:39.313Z,22.48
2022-10-25T00:36:08.581Z,21.17
2022-10-25T00:38:36.042Z,20.67
2022-10-25T00:41:04.142Z,23.63
2022-10-25T00:43:49.242Z,20.95
2022-10-25T00:46:24.088Z,22.92
2022-10-25T00:49:52.191Z,22.17
2022-10-25T00:53:01.346Z,20.40
2022-10-25T00:56:00.423Z,21.50
2022-10-25T00:58:36.619Z,21.90
2022-10-25T01:01:14.889Z,21.77
2022-10-25T01:04:07.774Z,21.67
2022-10-25T01:10:02.151Z,21.88
2022-10-25T01:12:52.963Z,22.65
2022-10-25T01:15:45.633Z,21.98
2022-10-25T01:19:13.565Z,21.83
2022-10-25T01:21:59.314Z,21.02
2022-10-25T01:24:58.098Z,22.23
2022-10-25T01:27:52.692Z,20.92
2022-10-25T01:30:20.008Z,23.60
2022-10-25T01:33:05.485Z,23.75
2022-10-25T01:35:49.186Z,23.33
2022-10-25T01:38:50.374Z,22.40
2022-10-25T01:41:57.706Z,24.42
2022-10-25T01:45:13.395Z,24.50
2022-10-25T01:48:23.600Z,23.50
2022-10-25T01:50:50.966Z,23.70
2022-10-25T01:53:18.436Z,25.42
2022-10-25T01:55:59.009Z,25.38
2022-10-25T01:58:34.722Z,25.10
2022-10-25T02:01:23.772Z,24.98
2022-10-25T02:04:02.175Z,27.30
2022-10-25T02:06:29.460Z,25.75
2022-10-25T02:09:02.342Z,26.40
2022-10-25T02:11:44.631Z,24.88
2022-10-25T02:14:40.596Z,25.55
2022-10-25T02:17:25.903Z,25.50
2022-10-25T02:20:01.610Z,26.05
2022-10-25T02:22:41.399Z,25.90
2022-10-25T02:25:13.210Z,26.13
2022-10-25T02:27:41.194Z,27.35
2022-10-25T02:30:09.542Z,27.77
2022-10-25T02:32:41.099Z,26.48
2022-10-25T02:35:16.108Z,26.90
2022-10-25T02:37:44.341Z,24.63
2022-10-25T02:40:14.178Z,27.95
2022-10-25T02:42:51.625Z,28.38
2022-10-25T02:45:22.081Z,28.23
2022-10-25T02:47:49.586Z,27.67
2022-10-25T02:50:16.928Z,27.08
2022-10-25T02:52:46.552Z,26.17
2022-10-25T02:55:14.072Z,24.38
2022-10-25T02:57:43.548Z,24.75
2022-10-25T03:02:43.659Z,24.02
2022-10-25T03:05:10.829Z,24.80
2022-10-25T03:07:38.156Z,23.00
2022-10-25T03:10:05.871Z,24.15
2022-10-25T03:12:33.196Z,23.05
2022-10-25T03:15:00.340Z,23.58
2022-10-25T03:17:27.570Z,22.63
2022-10-25T03:19:54.572Z,22.52
2022-10-25T03:22:22.029Z,22.92
2022-10-25T03:24:49.175Z,23.05
2022-10-25T03:27:18.044Z,22.92
2022-10-25T03:29:45.135Z,23.05
2022-10-25T03:32:12.388Z,25.60
2022-10-25T03:34:40.993Z,25.70
2022-10-25T03:37:08.215Z,23.95
2022-10-25T03:39:35.345Z,24.08
2022-10-25T03:42:02.831Z,24.60
2022-10-25T03:44:30.283Z,22.38
2022-10-25T03:46:57.246Z,22.05
2022-10-25T03:49:25.699Z,23.20
2022-10-25T03:51:57.037Z,21.70
2022-10-25T03:54:29.209Z,21.42
2022-10-25T03:56:56.646Z,20.98
2022-10-25T03:59:26.541Z,19.90
2022-10-25T04:01:54.279Z,20.92
2022-10-25T04:04:21.809Z,20.83
2022-10-25T04:06:48.965Z,19.23
2022-10-25T04:09:16.193Z,20.73
2022-10-25T04:11:43.758Z,21.85
2022-10-25T04:14:11.008Z,23.13
2022-10-25T04:16:38.380Z,19.10
2022-10-25T04:19:06.026Z,19.65
2022-10-25T04:21:33.422Z,19.73
2022-10-25T04:24:03.507Z,19.77
2022-10-25T04:26:36.395Z,20.02
2022-10-25T04:29:06.957Z,19.33
2022-10-25T04:31:34.773Z,18.02
2022-10-25T04:34:02.081Z,18.00
2022-10-25T04:36:30.405Z,19.23
2022-10-25T04:38:57.979Z,17.85
2022-10-25T04:41:32.156Z,17.95
2022-10-25T04:44:04.013Z,17.30
2022-10-25T04:46:31.488Z,16.92
2022-10-25T04:49:04.617Z,17.30
2022-10-25T04:51:38.476Z,16.75
2022-10-25T04:54:21.771Z,16.80
2022-10-25T04:57:10.607Z,16.67
2022-10-25T04:59:40.972Z,16.35
2022-10-25T05:02:08.370Z,16.95
2022-10-25T05:04:35.967Z,16.58
2022-10-25T05:07:03.578Z,15.20
2022-10-25T05:09:30.785Z,16.27
2022-10-25T05:12:14.165Z,17.10
2022-10-25T05:14:49.045Z,16.58
2022-10-25T05:17:16.347Z,16.90
2022-10-25T05:19:43.794Z,16.45
2022-10-25T05:22:11.180Z,17.42
2022-10-25T05:24:38.910Z,16.92
2022-10-25T05:27:06.846Z,14.48
2022-10-25T05:29:37.420Z,15.95
2022-10-25T05:32:08.408Z,18.05
2022-10-25T05:34:38.065Z,16.52
2022-10-25T05:37:05.311Z,16.55
2022-10-25T05:39:32.579Z,14.77
2022-10-25T05:42:00.532Z,14.05
2022-10-25T05:44:28.104Z,15.48
2022-10-25T05:46:55.966Z,16.55
2022-10-25T05:49:38.786Z,16.25
2022-10-25T05:52:14.349Z,16.08
2022-10-25T05:54:41.326Z,17.13
2022-10-25T05:57:08.401Z,15.90
2022-10-25T05:59:35.512Z,16.75
2022-10-25T06:02:02.460Z,15.50
2022-10-25T06:04:29.386Z,17.48
2022-10-25T06:06:56.329Z,17.80
2022-10-25T06:09:23.154Z,16.90
2022-10-25T06:11:49.939Z,15.35
2022-10-25T06:14:16.711Z,14.65
2022-10-25T06:16:51.090Z,16.48
2022-10-25T06:19:23.321Z,13.73
2022-10-25T06:22:02.333Z,15.80
2022-10-25T06:24:35.148Z,16.75
2022-10-25T06:27:04.896Z,19.15
2022-10-25T06:29:32.156Z,18.63
2022-10-25T06:31:59.428Z,22.17
2022-10-25T06:34:28.942Z,20.25
2022-10-25T06:36:55.882Z,25.45
2022-10-25T06:39:23.011Z,22.42
2022-10-25T06:42:51.482Z,18.65
2022-10-25T06:45:19.111Z,29.38
2022-10-25T06:47:46.831Z,26.45
2022-10-25T06:50:16.935Z,27.17
2022-10-25T06:52:44.377Z,31.05
2022-10-25T06:55:13.434Z,25.60
2022-10-25T06:57:40.675Z,21.05
2022-10-25T07:00:11.477Z,17.95
2022-10-25T07:02:41.250Z,18.00
2022-10-25T07:05:13.239Z,16.45
2022-10-25T07:07:46.636Z,17.17
2022-10-25T07:10:20.461Z,16.70
2022-10-25T07:12:47.763Z,13.93
2022-10-25T07:15:26.228Z,16.38
2022-10-25T07:18:06.479Z,18.60
2022-10-25T07:20:35.864Z,16.75
2022-10-25T07:23:08.715Z,13.05
2022-10-25T07:29:21.607Z,13.25
2022-10-25T07:32:12.883Z,11.63
2022-10-25T07:35:03.066Z,11.73
2022-10-25T07:37:30.730Z,11.73
2022-10-25T07:40:01.662Z,10.73
2022-10-25T07:42:40.919Z,10.75
2022-10-25T07:45:11.308Z,10.30
2022-10-25T07:47:40.228Z,10.55
2022-10-25T07:50:07.886Z,10.35
2022-10-25T07:52:38.048Z,9.90
2022-10-25T07:55:07.650Z,10.25
2022-10-25T07:57:34.669Z,10.18
2022-10-25T08:00:01.543Z,9.98
2022-10-25T08:02:31.249Z,10.52
2022-10-25T08:05:01.119Z,11.20
2022-10-25T08:07:31.623Z,11.35
2022-10-25T08:10:23.504Z,10.73
2022-10-25T08:12:51.936Z,10.73
2022-10-25T08:15:22.102Z,10.63
2022-10-25T08:17:56.855Z,9.70
2022-10-25T08:20:56.842Z,10.15
2022-10-25T08:30:16.233Z,10.15
2022-10-25T08:32:45.822Z,9.63
2022-10-25T08:35:22.431Z,10.00
2022-10-25T08:38:08.272Z,9.05
2022-10-25T08:41:06.811Z,9.50
2022-10-25T08:46:47.729Z,8.60
2022-10-25T08:49:54.282Z,8.75
2022-10-25T08:52:45.056Z,8.23
2022-10-25T08:55:25.274Z,8.30
2022-10-25T08:57:58.065Z,8.75
2022-10-25T09:00:36.942Z,9.77
2022-10-25T09:03:07.815Z,8.70
2022-10-25T09:06:10.386Z,8.95
2022-10-25T09:09:06.774Z,7.78
2022-10-25T09:12:39.184Z,7.70
2022-10-25T09:15:26.433Z,7.75
2022-10-25T09:17:59.355Z,7.63
2022-10-25T09:20:41.715Z,8.02
2022-10-25T09:23:35.338Z,7.13
2022-10-25T09:26:18.613Z,7.63
2022-10-25T09:32:37.306Z,7.70
2022-10-25T09:35:47.481Z,7.93
2022-10-25T09:38:42.395Z,7.95
2022-10-25T10:12:44.468Z,8.38
2022-10-25T10:15:26.553Z,7.68
2022-10-25T10:18:45.026Z,6.95
2022-10-25T10:21:35.868Z,6.78
2022-10-25T10:24:09.842Z,7.40
2022-10-25T10:26:46.621Z,6.53
2022-10-25T10:29:31.157Z,6.63
2022-10-25T10:32:07.728Z,7.13
2022-10-25T10:34:55.339Z,6.88
2022-10-25T10:37:34.879Z,6.82
2022-10-25T10:40:07.153Z,7.07
2022-10-25T10:42:54.739Z,7.18
2022-10-25T10:45:49.941Z,7.00
2022-10-25T10:48:23.224Z,7.50
2022-10-25T10:54:28.904Z,6.65
2022-10-25T10:57:07.897Z,7.47
2022-10-25T11:00:07.839Z,7.30
2022-10-25T11:02:42.165Z,7.35
2022-10-25T11:06:23.591Z,6.65
2022-10-25T11:09:42.566Z,8.52
2022-10-25T11:15:40.956Z,7.75
2022-10-25T11:29:09.322Z,9.38
2022-10-25T11:39:12.092Z,7.80
2022-10-25T11:45:56.752Z,7.88
2022-10-25T11:49:21.402Z,8.75
2022-10-25T11:52:22.633Z,8.32
2022-10-25T11:55:22.912Z,8.40
2022-10-25T12:41:36.579Z,10.10
2022-10-25T12:44:50.368Z,10.50
2022-10-25T12:48:42.446Z,10.18
2022-10-25T12:52:20.903Z,10.73
2022-10-25T12:55:06.185Z,9.75
2022-10-25T13:01:47.709Z,9.13
2022-10-25T13:04:42.505Z,8.73
2022-10-25T13:07:47.095Z,8.93
2022-10-25T13:14:00.175Z,8.93
2022-10-25T13:16:39.907Z,10.48
2022-10-25T13:19:57.724Z,12.52
2022-10-25T13:22:44.410Z,13.52
2022-10-25T13:29:19.982Z,13.93
2022-10-25T13:34:39.865Z,11.40
2022-10-25T13:37:41.747Z,12.13
2022-10-25T13:40:41.320Z,11.27
2022-10-25T13:43:22.006Z,11.38
2022-10-25T13:45:55.605Z,11.30
2022-10-25T13:48:51.823Z,10.20
2022-10-25T13:58:38.129Z,11.57
2022-10-25T14:01:56.587Z,11.77
2022-10-25T14:04:38.109Z,11.25
2022-10-25T14:07:47.119Z,12.65
2022-10-25T14:10:25.353Z,11.80
2022-10-25T14:12:57.523Z,11.88
2022-10-25T14:15:38.284Z,12.73
2022-10-25T14:18:17.909Z,13.43
2022-10-25T14:21:20.218Z,14.23
2022-10-25T14:24:01.990Z,15.13
2022-10-25T14:26:29.503Z,16.83
2022-10-25T14:29:21.478Z,16.88
2022-10-25T14:32:20.570Z,20.13
2022-10-25T14:34:54.579Z,19.35
2022-10-25T14:37:26.856Z,21.70
2022-10-25T14:45:02.350Z,19.52
2022-10-25T14:47:47.184Z,16.38
2022-10-25T14:50:45.797Z,15.13
2022-10-25T14:53:21.955Z,14.88
2022-10-25T14:55:55.542Z,15.23
2022-10-25T14:58:24.410Z,11.88
2022-10-25T15:00:58.947Z,13.93
2022-10-25T15:03:29.381Z,15.32
2022-10-25T15:05:59.153Z,15.70
2022-10-25T15:08:29.012Z,15.45
2022-10-25T15:11:04.293Z,15.80
2022-10-25T15:13:48.148Z,14.15
2022-10-25T15:16:30.028Z,14.13
2022-10-25T15:19:08.974Z,16.08
2022-10-25T15:22:10.833Z,14.95
2022-10-25T15:24:46.511Z,14.82
2022-10-25T15:27:28.051Z,15.02
2022-10-25T15:29:55.230Z,13.75
2022-10-25T15:32:27.745Z,14.32
2022-10-25T15:34:57.399Z,14.20
2022-10-25T15:37:26.842Z,15.40
2022-10-25T15:39:55.675Z,16.60
2022-10-25T15:42:25.437Z,20.38
2022-10-25T15:44:52.228Z,24.10
2022-10-25T15:47:33.324Z,29.70
2022-10-25T15:50:06.296Z,28.88
2022-10-25T15:52:33.292Z,21.27
2022-10-25T15:55:00.234Z,18.25
2022-10-25T15:57:27.537Z,17.15
2022-10-25T15:59:54.691Z,17.90
2022-10-25T16:02:31.940Z,19.33
2022-10-25T16:04:59.118Z,18.35
2022-10-25T16:07:26.342Z,17.67
2022-10-25T16:09:53.896Z,18.52
2022-10-25T16:12:26.325Z,16.90
2022-10-25T16:14:53.483Z,16.63
2022-10-25T16:17:20.408Z,16.70
2022-10-25T16:19:47.485Z,16.83
2022-10-25T16:22:14.404Z,18.67
2022-10-25T16:24:52.053Z,17.65
2022-10-25T16:27:22.636Z,17.25
2022-10-25T16:30:17.538Z,17.05
2022-10-25T16:32:58.592Z,19.23
2022-10-25T16:35:28.306Z,17.10
2022-10-25T16:37:55.658Z,16.33
2022-10-25T16:40:25.326Z,15.77
2022-10-25T16:42:52.796Z,17.17
2022-10-25T16:45:28.392Z,16.75
2022-10-25T16:51:13.003Z,17.38
2022-10-25T16:54:03.844Z,17.73
2022-10-25T16:56:30.959Z,17.42
2022-10-25T16:59:00.713Z,18.13
2022-10-25T17:01:36.413Z,19.98
2022-10-25T17:04:30.742Z,18.77
2022-10-25T17:06:57.964Z,18.90
2022-10-25T17:09:29.131Z,19.23
2022-10-25T17:11:56.494Z,18.85
2022-10-25T17:14:34.590Z,19.30
2022-10-25T17:17:10.247Z,17.70
2022-10-25T17:19:42.761Z,18.48
2022-10-25T17:22:10.178Z,17.95
2022-10-25T17:24:44.652Z,17.33
2022-10-25T17:27:14.329Z,17.63
2022-10-25T17:29:44.279Z,18.20
2022-10-25T17:32:13.931Z,18.48
2022-10-25T17:34:41.371Z,16.67
2022-10-25T17:37:09.571Z,19.10
2022-10-25T17:39:44.713Z,18.05
2022-10-25T17:44:50.989Z,18.70
2022-10-25T17:47:17.927Z,20.77
2022-10-25T17:49:44.947Z,20.88
2022-10-25T17:52:23.261Z,19.17
2022-10-25T17:54:50.818Z,17.45
2022-10-25T17:57:22.612Z,16.88
2022-10-25T18:02:26.746Z,17.02
2022-10-25T18:05:19.328Z,16.83
2022-10-25T18:07:51.655Z,16.02
2022-10-25T18:10:26.100Z,15.48
2022-10-25T18:12:53.634Z,15.68
2022-10-25T18:15:34.893Z,15.30
2022-10-25T18:18:08.060Z,16.90
2022-10-25T18:20:38.074Z,16.10
2022-10-25T18:23:07.208Z,16.05
2022-10-25T18:25:35.034Z,15.18
2022-10-25T18:28:11.709Z,15.18
2022-10-25T18:30:44.094Z,15.93
2022-10-25T18:33:18.988Z,15.05
2022-10-25T18:35:46.424Z,15.13
2022-10-25T18:38:17.071Z,16.30
2022-10-25T18:40:45.225Z,15.30
2022-10-25T18:43:12.422Z,16.38
2022-10-25T18:45:42.061Z,17.40
2022-10-25T18:48:15.001Z,17.00
2022-10-25T18:50:42.778Z,16.85
2022-10-25T18:53:09.970Z,17.75
2022-10-25T18:55:44.834Z,16.80
2022-10-25T18:58:19.578Z,17.05
2022-10-25T19:00:47.572Z,17.33
2022-10-25T19:03:17.324Z,17.25
2022-10-25T19:05:57.257Z,17.50
2022-10-25T19:08:24.936Z,17.85
2022-10-25T19:10:52.151Z,17.92
2022-10-25T19:13:19.952Z,18.20
2022-10-25T19:15:49.881Z,17.67
2022-10-25T19:19:36.653Z,18.85
2022-10-25T19:21:41.887Z,18.42
2022-10-25T19:24:18.646Z,17.65
2022-10-25T19:27:11.914Z,18.20
2022-10-25T19:29:44.595Z,18.25
2022-10-25T19:32:14.142Z,19.63
2022-10-25T19:34:57.276Z,18.60
2022-10-25T19:40:29.892Z,19.58
2022-10-25T19:43:16.766Z,19.90
2022-10-25T19:46:05.036Z,18.85
2022-10-25T19:48:50.464Z,18.55
2022-10-25T19:51:23.300Z,18.92
2022-10-25T19:54:01.859Z,18.92
2022-10-25T19:56:29.106Z,20.60
2022-10-25T19:59:04.641Z,20.55
2022-10-25T20:01:36.285Z,21.42
2022-10-25T20:04:03.675Z,20.77
2022-10-25T20:06:46.373Z,22.35
2022-10-25T20:09:27.205Z,22.55
2022-10-25T20:12:21.672Z,21.55
2022-10-25T20:14:51.711Z,20.65
2022-10-25T20:17:18.681Z,20.60
2022-10-25T20:19:48.476Z,19.98
2022-10-25T20:22:17.202Z,20.58
2022-10-25T20:25:00.124Z,21.73
2022-10-25T20:27:35.911Z,19.45
2022-10-25T20:48:24.243Z,16.70
2022-10-25T20:51:05.347Z,15.90
2022-10-25T21:07:16.380Z,15.52
2022-10-25T21:09:49.262Z,15.80
2022-10-25T21:12:19.919Z,14.98
2022-10-25T21:14:59.449Z,15.77
2022-10-25T21:17:51.105Z,14.95
2022-10-25T21:20:21.367Z,15.05
2022-10-25T21:22:48.605Z,15.20
2022-10-25T21:25:18.522Z,15.05
2022-10-25T21:27:54.649Z,14.00
2022-10-25T21:30:25.210Z,15.05
2022-10-25T21:32:54.081Z,14.60
2022-10-25T21:35:21.641Z,15.15
2022-10-25T21:37:53.367Z,14.93
2022-10-25T21:40:22.980Z,15.90
2022-10-25T21:42:50.297Z,15.80
2022-10-25T21:45:17.496Z,15.25
2022-10-25T21:47:44.472Z,14.82
2022-10-25T21:50:16.366Z,13.65
2022-10-25T21:52:53.344Z,14.50
2022-10-25T21:55:20.666Z,14.13
2022-10-25T21:57:50.543Z,14.88
2022-10-25T22:00:26.545Z,14.18
2022-10-25T22:03:00.380Z,14.10
2022-10-25T22:06:11.902Z,13.93
2022-10-25T22:08:39.296Z,15.73
2022-10-25T22:11:32.292Z,14.15
2022-10-25T22:14:02.186Z,13.05
2022-10-25T22:16:36.231Z,13.82
2022-10-25T22:19:13.150Z,12.93
2022-10-25T22:21:44.316Z,12.18
2022-10-25T22:24:31.437Z,10.95
2022-10-25T22:27:01.298Z,10.73
2022-10-25T22:29:28.531Z,10.23
2022-10-25T22:31:58.811Z,9.98
2022-10-25T22:34:31.492Z,9.05
2022-10-25T22:37:01.460Z,9.57
2022-10-25T22:39:37.522Z,9.40
2022-10-25T22:42:11.864Z,8.68
2022-10-25T22:44:40.063Z,7.90
2022-10-25T22:47:08.470Z,8.13
2022-10-25T22:49:48.506Z,7.53
2022-10-25T22:52:25.107Z,7.47
2022-10-25T22:54:53.875Z,7.97
2022-10-25T22:57:21.605Z,8.50
2022-10-25T22:59:48.621Z,9.25
2022-10-25T23:02:18.368Z,8.82
2022-10-25T23:04:45.567Z,8.93
2022-10-25T23:07:12.984Z,9.05
2022-10-25T23:09:42.788Z,9.07
2022-10-25T23:12:10.332Z,9.18
2022-10-25T23:14:37.322Z,9.32
2022-10-25T23:17:04.192Z,11.70
2022-10-25T23:19:31.162Z,10.80
2022-10-25T23:21:58.008Z,10.10
2022-10-25T23:24:24.890Z,9.38
2022-10-25T23:26:51.699Z,8.68
2022-10-25T23:29:18.996Z,8.13
2022-10-25T23:31:45.905Z,7.20
2022-10-25T23:34:12.850Z,7.47
2022-10-25T23:36:39.974Z,7.32
2022-10-25T23:39:07.506Z,7.05
2022-10-25T23:41:34.948Z,7.05
2022-10-25T23:44:02.126Z,7.47
2022-10-25T23:46:28.982Z,6.82
2022-10-25T23:48:56.063Z,6.85
2022-10-25T23:51:23.068Z,6.88
2022-10-25T23:53:50.387Z,6.57
2022-10-25T23:56:17.331Z,6.75
2022-10-25T23:58:44.388Z,6.55
